sensor_id;sensor_type;location;lat;lon;timestamp;temperature;humidity
58517;DHT22;44308;50.810;0.284;2023-04-15T00:00:16;9.00;99.90
58517;DHT22;44308;50.810;0.284;2023-04-15T00:02:42;8.90;99.90
58517;DHT22;44308;50.810;0.284;2023-04-15T00:05:08;8.90;99.90
58517;DHT22;44308;50.810;0.284;2023-04-15T00:07:34;8.90;99.90
58517;DHT22;44308;50.810;0.284;2023-04-15T00:10:00;9.00;99.90
58517;DHT22;44308;50.810;0.284;2023-04-15T00:12:27;8.90;99.90
58517;DHT22;44308;50.810;0.284;2023-04-15T00:14:53;9.00;99.90
58517;DHT22;44308;50.810;0.284;2023-04-15T00:17:20;8.90;99.90
58517;DHT22;44308;50.810;0.284;2023-04-15T00:19:45;9.10;99.90
58517;DHT22;44308;50.810;0.284;2023-04-15T00:22:12;9.10;99.90
58517;DHT22;44308;50.810;0.284;2023-04-15T00:24:38;9.10;99.90
58517;DHT22;44308;50.810;0.284;2023-04-15T00:27:04;8.90;99.90
58517;DHT22;44308;50.810;0.284;2023-04-15T00:29:30;8.90;99.90
58517;DHT22;44308;50.810;0.284;2023-04-15T00:31:56;8.90;99.90
58517;DHT22;44308;50.810;0.284;2023-04-15T00:34:22;8.90;99.90
58517;DHT22;44308;50.810;0.284;2023-04-15T00:36:49;9.00;99.90
58517;DHT22;44308;50.810;0.284;2023-04-15T00:39:15;9.00;99.90
58517;DHT22;44308;50.810;0.284;2023-04-15T00:41:43;8.90;99.90
58517;DHT22;44308;50.810;0.284;2023-04-15T00:44:11;8.90;99.90
58517;DHT22;44308;50.810;0.284;2023-04-15T00:46:38;8.80;99.90
58517;DHT22;44308;50.810;0.284;2023-04-15T00:49:05;8.70;99.90
58517;DHT22;44308;50.810;0.284;2023-04-15T00:51:31;8.70;99.90
58517;DHT22;44308;50.810;0.284;2023-04-15T00:54:00;8.70;99.90
58517;DHT22;44308;50.810;0.284;2023-04-15T00:56:28;8.60;99.90
58517;DHT22;44308;50.810;0.284;2023-04-15T00:58:53;8.50;99.90
58517;DHT22;44308;50.810;0.284;2023-04-15T01:01:23;8.50;99.90
58517;DHT22;44308;50.810;0.284;2023-04-15T01:03:49;8.40;99.90
58517;DHT22;44308;50.810;0.284;2023-04-15T01:06:16;8.40;99.90
58517;DHT22;44308;50.810;0.284;2023-04-15T01:08:42;8.50;99.90
58517;DHT22;44308;50.810;0.284;2023-04-15T01:11:08;8.40;99.90
58517;DHT22;44308;50.810;0.284;2023-04-15T01:13:35;8.40;99.90
58517;DHT22;44308;50.810;0.284;2023-04-15T01:16:01;8.30;99.90
58517;DHT22;44308;50.810;0.284;2023-04-15T01:18:28;8.40;99.90
58517;DHT22;44308;50.810;0.284;2023-04-15T01:20:54;8.40;99.90
58517;DHT22;44308;50.810;0.284;2023-04-15T01:23:22;8.40;99.90
58517;DHT22;44308;50.810;0.284;2023-04-15T01:25:49;8.40;99.90
58517;DHT22;44308;50.810;0.284;2023-04-15T01:28:15;8.40;99.90
58517;DHT22;44308;50.810;0.284;2023-04-15T01:30:41;8.50;99.90
58517;DHT22;44308;50.810;0.284;2023-04-15T01:33:07;8.50;99.90
58517;DHT22;44308;50.810;0.284;2023-04-15T01:35:33;8.40;99.90
58517;DHT22;44308;50.810;0.284;2023-04-15T01:38:06;8.50;99.90
58517;DHT22;44308;50.810;0.284;2023-04-15T01:40:33;8.50;99.90
58517;DHT22;44308;50.810;0.284;2023-04-15T01:43:01;8.30;99.90
58517;DHT22;44308;50.810;0.284;2023-04-15T01:45:28;8.40;99.90
58517;DHT22;44308;50.810;0.284;2023-04-15T01:47:54;8.40;99.90
58517;DHT22;44308;50.810;0.284;2023-04-15T01:50:20;8.30;99.90
58517;DHT22;44308;50.810;0.284;2023-04-15T01:52:46;8.20;99.90
58517;DHT22;44308;50.810;0.284;2023-04-15T01:55:12;8.20;99.90
58517;DHT22;44308;50.810;0.284;2023-04-15T01:57:38;8.20;99.90
58517;DHT22;44308;50.810;0.284;2023-04-15T02:00:05;8.00;99.90
58517;DHT22;44308;50.810;0.284;2023-04-15T02:02:32;8.00;99.90
58517;DHT22;44308;50.810;0.284;2023-04-15T02:04:58;7.90;99.90
58517;DHT22;44308;50.810;0.284;2023-04-15T02:07:24;8.00;99.90
58517;DHT22;44308;50.810;0.284;2023-04-15T02:09:50;7.80;99.90
58517;DHT22;44308;50.810;0.284;2023-04-15T02:12:16;7.90;99.90
58517;DHT22;44308;50.810;0.284;2023-04-15T02:14:42;7.90;99.90
58517;DHT22;44308;50.810;0.284;2023-04-15T02:17:07;7.90;99.90
58517;DHT22;44308;50.810;0.284;2023-04-15T02:19:34;7.90;99.90
58517;DHT22;44308;50.810;0.284;2023-04-15T02:22:00;8.00;99.90
58517;DHT22;44308;50.810;0.284;2023-04-15T02:24:29;7.90;99.90
58517;DHT22;44308;50.810;0.284;2023-04-15T02:26:55;8.00;99.90
58517;DHT22;44308;50.810;0.284;2023-04-15T02:29:21;8.10;99.90
58517;DHT22;44308;50.810;0.284;2023-04-15T02:31:48;8.00;99.90
58517;DHT22;44308;50.810;0.284;2023-04-15T02:34:14;8.00;99.90
58517;DHT22;44308;50.810;0.284;2023-04-15T02:36:39;8.00;99.90
58517;DHT22;44308;50.810;0.284;2023-04-15T02:39:05;8.00;99.90
58517;DHT22;44308;50.810;0.284;2023-04-15T02:41:31;8.00;99.90
58517;DHT22;44308;50.810;0.284;2023-04-15T02:43:57;8.10;99.90
58517;DHT22;44308;50.810;0.284;2023-04-15T02:46:23;8.00;99.90
58517;DHT22;44308;50.810;0.284;2023-04-15T02:48:49;8.20;99.90
58517;DHT22;44308;50.810;0.284;2023-04-15T02:51:19;8.20;99.90
58517;DHT22;44308;50.810;0.284;2023-04-15T02:53:53;8.10;99.90
58517;DHT22;44308;50.810;0.284;2023-04-15T02:56:18;8.10;99.90
58517;DHT22;44308;50.810;0.284;2023-04-15T02:58:44;8.10;99.90
58517;DHT22;44308;50.810;0.284;2023-04-15T03:01:10;8.10;99.90
58517;DHT22;44308;50.810;0.284;2023-04-15T03:03:36;8.10;99.90
58517;DHT22;44308;50.810;0.284;2023-04-15T03:06:02;8.20;99.90
58517;DHT22;44308;50.810;0.284;2023-04-15T03:08:27;8.20;99.90
58517;DHT22;44308;50.810;0.284;2023-04-15T03:10:53;8.20;99.90
58517;DHT22;44308;50.810;0.284;2023-04-15T03:13:19;8.20;99.90
58517;DHT22;44308;50.810;0.284;2023-04-15T03:15:46;8.30;99.90
58517;DHT22;44308;50.810;0.284;2023-04-15T03:18:12;8.20;99.90
58517;DHT22;44308;50.810;0.284;2023-04-15T03:20:37;8.10;99.90
58517;DHT22;44308;50.810;0.284;2023-04-15T03:23:03;8.10;99.90
58517;DHT22;44308;50.810;0.284;2023-04-15T03:25:29;8.00;99.90
58517;DHT22;44308;50.810;0.284;2023-04-15T03:27:54;8.00;99.90
58517;DHT22;44308;50.810;0.284;2023-04-15T03:30:20;7.80;99.90
58517;DHT22;44308;50.810;0.284;2023-04-15T03:32:46;7.70;99.90
58517;DHT22;44308;50.810;0.284;2023-04-15T03:35:12;7.70;99.90
58517;DHT22;44308;50.810;0.284;2023-04-15T03:37:37;7.70;99.90
58517;DHT22;44308;50.810;0.284;2023-04-15T03:40:03;7.70;99.90
58517;DHT22;44308;50.810;0.284;2023-04-15T03:42:31;7.70;99.90
58517;DHT22;44308;50.810;0.284;2023-04-15T03:44:56;7.70;99.90
58517;DHT22;44308;50.810;0.284;2023-04-15T03:47:22;7.80;99.90
58517;DHT22;44308;50.810;0.284;2023-04-15T03:49:48;7.80;99.90
58517;DHT22;44308;50.810;0.284;2023-04-15T03:52:13;7.90;99.90
58517;DHT22;44308;50.810;0.284;2023-04-15T03:54:39;7.90;99.90
58517;DHT22;44308;50.810;0.284;2023-04-15T03:57:05;8.00;99.90
58517;DHT22;44308;50.810;0.284;2023-04-15T03:59:31;7.90;99.90
58517;DHT22;44308;50.810;0.284;2023-04-15T04:01:56;8.00;99.90
58517;DHT22;44308;50.810;0.284;2023-04-15T04:04:22;8.00;99.90
58517;DHT22;44308;50.810;0.284;2023-04-15T04:06:48;8.00;99.90
58517;DHT22;44308;50.810;0.284;2023-04-15T04:09:13;8.00;99.90
58517;DHT22;44308;50.810;0.284;2023-04-15T04:11:42;8.00;99.90
58517;DHT22;44308;50.810;0.284;2023-04-15T04:14:11;8.00;99.90
58517;DHT22;44308;50.810;0.284;2023-04-15T04:16:36;8.00;99.90
58517;DHT22;44308;50.810;0.284;2023-04-15T04:19:02;8.10;99.90
58517;DHT22;44308;50.810;0.284;2023-04-15T04:21:28;8.10;99.90
58517;DHT22;44308;50.810;0.284;2023-04-15T04:23:54;8.20;99.90
58517;DHT22;44308;50.810;0.284;2023-04-15T04:26:21;8.20;99.90
58517;DHT22;44308;50.810;0.284;2023-04-15T04:28:47;8.10;99.90
58517;DHT22;44308;50.810;0.284;2023-04-15T04:31:13;8.10;99.90
58517;DHT22;44308;50.810;0.284;2023-04-15T04:33:38;8.20;99.90
58517;DHT22;44308;50.810;0.284;2023-04-15T04:36:04;8.10;99.90
58517;DHT22;44308;50.810;0.284;2023-04-15T04:38:31;8.30;99.90
58517;DHT22;44308;50.810;0.284;2023-04-15T04:40:57;8.30;99.90
58517;DHT22;44308;50.810;0.284;2023-04-15T04:43:23;8.20;99.90
58517;DHT22;44308;50.810;0.284;2023-04-15T04:45:48;8.20;99.90
58517;DHT22;44308;50.810;0.284;2023-04-15T04:48:14;8.20;99.90
58517;DHT22;44308;50.810;0.284;2023-04-15T04:50:39;8.20;99.90
58517;DHT22;44308;50.810;0.284;2023-04-15T04:53:05;8.20;99.90
58517;DHT22;44308;50.810;0.284;2023-04-15T04:55:31;8.30;99.90
58517;DHT22;44308;50.810;0.284;2023-04-15T04:57:57;8.20;99.90
58517;DHT22;44308;50.810;0.284;2023-04-15T05:00:22;8.30;99.90
58517;DHT22;44308;50.810;0.284;2023-04-15T05:02:49;8.30;99.90
58517;DHT22;44308;50.810;0.284;2023-04-15T05:05:14;8.20;99.90
58517;DHT22;44308;50.810;0.284;2023-04-15T05:07:40;8.30;99.90
58517;DHT22;44308;50.810;0.284;2023-04-15T05:10:07;8.40;99.90
58517;DHT22;44308;50.810;0.284;2023-04-15T05:12:33;8.40;99.90
58517;DHT22;44308;50.810;0.284;2023-04-15T05:14:59;8.30;99.90
58517;DHT22;44308;50.810;0.284;2023-04-15T05:17:25;8.40;99.90
58517;DHT22;44308;50.810;0.284;2023-04-15T05:19:51;8.30;99.90
58517;DHT22;44308;50.810;0.284;2023-04-15T05:22:19;8.40;99.90
58517;DHT22;44308;50.810;0.284;2023-04-15T05:24:45;8.40;99.90
58517;DHT22;44308;50.810;0.284;2023-04-15T05:27:11;8.50;99.90
58517;DHT22;44308;50.810;0.284;2023-04-15T05:29:36;8.50;99.90
58517;DHT22;44308;50.810;0.284;2023-04-15T05:32:02;8.40;99.90
58517;DHT22;44308;50.810;0.284;2023-04-15T05:34:28;8.30;99.90
58517;DHT22;44308;50.810;0.284;2023-04-15T05:36:53;8.50;99.90
58517;DHT22;44308;50.810;0.284;2023-04-15T05:39:19;8.40;99.90
58517;DHT22;44308;50.810;0.284;2023-04-15T05:41:45;8.40;99.90
58517;DHT22;44308;50.810;0.284;2023-04-15T05:44:11;8.50;99.90
58517;DHT22;44308;50.810;0.284;2023-04-15T05:46:37;8.50;99.90
58517;DHT22;44308;50.810;0.284;2023-04-15T05:49:02;8.50;99.90
58517;DHT22;44308;50.810;0.284;2023-04-15T05:51:28;8.50;99.90
58517;DHT22;44308;50.810;0.284;2023-04-15T05:53:54;8.50;99.90
58517;DHT22;44308;50.810;0.284;2023-04-15T05:56:20;8.60;99.90
58517;DHT22;44308;50.810;0.284;2023-04-15T05:58:46;8.60;99.90
58517;DHT22;44308;50.810;0.284;2023-04-15T06:01:12;8.50;99.90
58517;DHT22;44308;50.810;0.284;2023-04-15T06:03:37;8.60;99.90
58517;DHT22;44308;50.810;0.284;2023-04-15T06:06:05;8.60;99.90
58517;DHT22;44308;50.810;0.284;2023-04-15T06:08:32;8.70;99.90
58517;DHT22;44308;50.810;0.284;2023-04-15T06:10:58;8.70;99.90
58517;DHT22;44308;50.810;0.284;2023-04-15T06:13:25;8.60;99.90
58517;DHT22;44308;50.810;0.284;2023-04-15T06:15:51;8.60;99.90
58517;DHT22;44308;50.810;0.284;2023-04-15T06:18:18;8.50;99.90
58517;DHT22;44308;50.810;0.284;2023-04-15T06:20:44;8.60;99.90
58517;DHT22;44308;50.810;0.284;2023-04-15T06:23:11;8.50;99.90
58517;DHT22;44308;50.810;0.284;2023-04-15T06:25:37;8.50;99.90
58517;DHT22;44308;50.810;0.284;2023-04-15T06:28:03;8.50;99.90
58517;DHT22;44308;50.810;0.284;2023-04-15T06:30:28;8.60;99.90
58517;DHT22;44308;50.810;0.284;2023-04-15T06:32:56;8.70;99.90
58517;DHT22;44308;50.810;0.284;2023-04-15T06:35:22;8.80;99.90
58517;DHT22;44308;50.810;0.284;2023-04-15T06:37:48;8.80;99.90
58517;DHT22;44308;50.810;0.284;2023-04-15T06:40:13;9.00;99.90
58517;DHT22;44308;50.810;0.284;2023-04-15T06:42:58;9.00;99.90
58517;DHT22;44308;50.810;0.284;2023-04-15T06:45:23;9.20;99.90
58517;DHT22;44308;50.810;0.284;2023-04-15T06:47:49;9.30;99.90
58517;DHT22;44308;50.810;0.284;2023-04-15T06:50:15;9.30;99.90
58517;DHT22;44308;50.810;0.284;2023-04-15T06:52:40;9.30;99.90
58517;DHT22;44308;50.810;0.284;2023-04-15T06:55:07;9.40;99.90
58517;DHT22;44308;50.810;0.284;2023-04-15T06:57:33;9.30;99.90
58517;DHT22;44308;50.810;0.284;2023-04-15T06:59:58;9.30;99.90
58517;DHT22;44308;50.810;0.284;2023-04-15T07:02:25;9.30;99.90
58517;DHT22;44308;50.810;0.284;2023-04-15T07:04:50;9.30;99.90
58517;DHT22;44308;50.810;0.284;2023-04-15T07:07:16;9.20;99.90
58517;DHT22;44308;50.810;0.284;2023-04-15T07:09:42;9.20;99.90
58517;DHT22;44308;50.810;0.284;2023-04-15T07:12:09;9.10;99.90
58517;DHT22;44308;50.810;0.284;2023-04-15T07:14:36;9.20;99.90
58517;DHT22;44308;50.810;0.284;2023-04-15T07:17:01;9.20;99.90
58517;DHT22;44308;50.810;0.284;2023-04-15T07:19:27;9.30;99.90
58517;DHT22;44308;50.810;0.284;2023-04-15T07:21:53;9.30;99.90
58517;DHT22;44308;50.810;0.284;2023-04-15T07:24:18;9.40;99.90
58517;DHT22;44308;50.810;0.284;2023-04-15T07:26:45;9.50;99.90
58517;DHT22;44308;50.810;0.284;2023-04-15T07:29:11;9.60;99.90
58517;DHT22;44308;50.810;0.284;2023-04-15T07:31:36;9.50;99.90
58517;DHT22;44308;50.810;0.284;2023-04-15T07:34:02;9.50;99.90
58517;DHT22;44308;50.810;0.284;2023-04-15T07:36:29;9.40;99.90
58517;DHT22;44308;50.810;0.284;2023-04-15T07:38:55;9.40;99.90
58517;DHT22;44308;50.810;0.284;2023-04-15T07:41:21;9.40;99.90
58517;DHT22;44308;50.810;0.284;2023-04-15T07:43:48;9.30;99.90
58517;DHT22;44308;50.810;0.284;2023-04-15T07:46:14;9.30;99.90
58517;DHT22;44308;50.810;0.284;2023-04-15T07:48:40;9.20;99.90
58517;DHT22;44308;50.810;0.284;2023-04-15T07:51:07;9.20;99.90
58517;DHT22;44308;50.810;0.284;2023-04-15T07:53:33;9.20;99.90
58517;DHT22;44308;50.810;0.284;2023-04-15T07:55:59;9.30;99.90
58517;DHT22;44308;50.810;0.284;2023-04-15T07:58:24;9.30;99.90
58517;DHT22;44308;50.810;0.284;2023-04-15T08:00:50;9.30;99.90
58517;DHT22;44308;50.810;0.284;2023-04-15T08:03:16;9.20;99.90
58517;DHT22;44308;50.810;0.284;2023-04-15T08:05:42;9.30;99.90
58517;DHT22;44308;50.810;0.284;2023-04-15T08:08:07;9.40;99.90
58517;DHT22;44308;50.810;0.284;2023-04-15T08:10:33;9.70;99.90
58517;DHT22;44308;50.810;0.284;2023-04-15T08:13:00;9.70;99.90
58517;DHT22;44308;50.810;0.284;2023-04-15T08:15:26;9.80;99.90
58517;DHT22;44308;50.810;0.284;2023-04-15T08:17:52;10.00;99.90
58517;DHT22;44308;50.810;0.284;2023-04-15T08:20:19;10.10;99.90
58517;DHT22;44308;50.810;0.284;2023-04-15T08:22:45;10.00;99.90
58517;DHT22;44308;50.810;0.284;2023-04-15T08:25:12;10.20;99.90
58517;DHT22;44308;50.810;0.284;2023-04-15T08:27:38;10.20;99.90
58517;DHT22;44308;50.810;0.284;2023-04-15T08:30:04;10.20;99.90
58517;DHT22;44308;50.810;0.284;2023-04-15T08:32:30;10.30;99.90
58517;DHT22;44308;50.810;0.284;2023-04-15T08:34:56;10.60;99.90
58517;DHT22;44308;50.810;0.284;2023-04-15T08:37:22;10.90;99.90
58517;DHT22;44308;50.810;0.284;2023-04-15T08:39:47;11.10;99.90
58517;DHT22;44308;50.810;0.284;2023-04-15T08:42:22;11.30;99.90
58517;DHT22;44308;50.810;0.284;2023-04-15T08:44:52;11.70;99.90
58517;DHT22;44308;50.810;0.284;2023-04-15T08:47:20;11.90;99.90
58517;DHT22;44308;50.810;0.284;2023-04-15T08:49:47;11.80;99.90
58517;DHT22;44308;50.810;0.284;2023-04-15T08:52:19;11.90;99.90
58517;DHT22;44308;50.810;0.284;2023-04-15T08:54:45;11.90;99.90
58517;DHT22;44308;50.810;0.284;2023-04-15T08:57:12;12.30;99.90
58517;DHT22;44308;50.810;0.284;2023-04-15T08:59:40;13.20;99.90
58517;DHT22;44308;50.810;0.284;2023-04-15T09:02:06;13.80;99.90
58517;DHT22;44308;50.810;0.284;2023-04-15T09:04:33;13.70;99.90
58517;DHT22;44308;50.810;0.284;2023-04-15T09:06:58;13.00;99.90
58517;DHT22;44308;50.810;0.284;2023-04-15T09:09:24;13.00;99.90
58517;DHT22;44308;50.810;0.284;2023-04-15T09:11:50;12.90;99.90
58517;DHT22;44308;50.810;0.284;2023-04-15T09:14:16;13.30;99.90
58517;DHT22;44308;50.810;0.284;2023-04-15T09:17:02;13.70;99.90
58517;DHT22;44308;50.810;0.284;2023-04-15T09:19:28;14.10;99.90
58517;DHT22;44308;50.810;0.284;2023-04-15T09:21:56;14.50;99.90
58517;DHT22;44308;50.810;0.284;2023-04-15T09:24:22;15.00;99.90
58517;DHT22;44308;50.810;0.284;2023-04-15T09:26:51;15.20;99.90
58517;DHT22;44308;50.810;0.284;2023-04-15T09:29:19;15.00;99.90
58517;DHT22;44308;50.810;0.284;2023-04-15T09:31:45;15.10;99.90
58517;DHT22;44308;50.810;0.284;2023-04-15T09:34:11;15.60;99.90
58517;DHT22;44308;50.810;0.284;2023-04-15T09:39:12;16.60;99.90
58517;DHT22;44308;50.810;0.284;2023-04-15T09:41:38;16.30;99.90
58517;DHT22;44308;50.810;0.284;2023-04-15T09:44:04;15.40;99.90
58517;DHT22;44308;50.810;0.284;2023-04-15T09:46:43;15.40;99.90
58517;DHT22;44308;50.810;0.284;2023-04-15T09:49:10;14.90;99.90
58517;DHT22;44308;50.810;0.284;2023-04-15T09:51:36;14.40;99.90
58517;DHT22;44308;50.810;0.284;2023-04-15T09:54:02;14.70;99.90
58517;DHT22;44308;50.810;0.284;2023-04-15T09:56:36;14.20;99.90
58517;DHT22;44308;50.810;0.284;2023-04-15T09:59:06;13.90;99.90
58517;DHT22;44308;50.810;0.284;2023-04-15T10:01:32;13.60;99.90
58517;DHT22;44308;50.810;0.284;2023-04-15T10:04:02;13.40;99.90
58517;DHT22;44308;50.810;0.284;2023-04-15T10:06:29;13.50;99.90
58517;DHT22;44308;50.810;0.284;2023-04-15T10:08:58;13.70;99.90
58517;DHT22;44308;50.810;0.284;2023-04-15T10:11:28;14.60;99.90
58517;DHT22;44308;50.810;0.284;2023-04-15T10:13:55;15.10;99.90
58517;DHT22;44308;50.810;0.284;2023-04-15T10:16:25;15.10;99.90
58517;DHT22;44308;50.810;0.284;2023-04-15T10:18:54;14.90;99.90
58517;DHT22;44308;50.810;0.284;2023-04-15T10:21:20;15.20;99.90
58517;DHT22;44308;50.810;0.284;2023-04-15T10:23:49;15.30;99.90
58517;DHT22;44308;50.810;0.284;2023-04-15T10:26:15;15.50;99.90
58517;DHT22;44308;50.810;0.284;2023-04-15T10:28:45;16.00;99.90
58517;DHT22;44308;50.810;0.284;2023-04-15T10:31:14;16.20;99.90
58517;DHT22;44308;50.810;0.284;2023-04-15T10:33:42;15.90;99.90
58517;DHT22;44308;50.810;0.284;2023-04-15T10:36:09;15.80;99.90
58517;DHT22;44308;50.810;0.284;2023-04-15T10:38:40;15.70;99.90
58517;DHT22;44308;50.810;0.284;2023-04-15T10:43:38;16.00;99.90
58517;DHT22;44308;50.810;0.284;2023-04-15T10:46:05;15.90;99.90
58517;DHT22;44308;50.810;0.284;2023-04-15T10:48:31;16.10;99.90
58517;DHT22;44308;50.810;0.284;2023-04-15T10:50:59;15.70;99.90
58517;DHT22;44308;50.810;0.284;2023-04-15T10:53:28;15.40;99.90
58517;DHT22;44308;50.810;0.284;2023-04-15T10:55:56;15.30;99.90
58517;DHT22;44308;50.810;0.284;2023-04-15T10:58:24;15.00;99.90
58517;DHT22;44308;50.810;0.284;2023-04-15T11:00:52;15.00;99.90
58517;DHT22;44308;50.810;0.284;2023-04-15T11:03:37;15.30;99.90
58517;DHT22;44308;50.810;0.284;2023-04-15T11:06:06;15.80;99.90
58517;DHT22;44308;50.810;0.284;2023-04-15T11:11:16;15.90;99.90
58517;DHT22;44308;50.810;0.284;2023-04-15T11:13:49;16.10;99.90
58517;DHT22;44308;50.810;0.284;2023-04-15T11:16:16;16.60;99.90
58517;DHT22;44308;50.810;0.284;2023-04-15T11:18:41;17.20;99.90
58517;DHT22;44308;50.810;0.284;2023-04-15T11:21:17;17.20;99.90
58517;DHT22;44308;50.810;0.284;2023-04-15T11:23:43;17.50;99.90
58517;DHT22;44308;50.810;0.284;2023-04-15T11:26:11;17.60;99.90
58517;DHT22;44308;50.810;0.284;2023-04-15T11:28:42;17.40;99.90
58517;DHT22;44308;50.810;0.284;2023-04-15T11:31:17;17.50;99.90
58517;DHT22;44308;50.810;0.284;2023-04-15T11:33:54;17.30;99.90
58517;DHT22;44308;50.810;0.284;2023-04-15T11:36:23;16.80;99.90
58517;DHT22;44308;50.810;0.284;2023-04-15T11:38:51;16.90;99.90
58517;DHT22;44308;50.810;0.284;2023-04-15T11:41:21;17.10;99.90
58517;DHT22;44308;50.810;0.284;2023-04-15T11:43:49;17.00;99.90
58517;DHT22;44308;50.810;0.284;2023-04-15T11:46:15;17.70;99.90
58517;DHT22;44308;50.810;0.284;2023-04-15T11:48:43;18.30;99.90
58517;DHT22;44308;50.810;0.284;2023-04-15T11:51:09;17.90;99.90
58517;DHT22;44308;50.810;0.284;2023-04-15T11:53:44;17.70;99.90
58517;DHT22;44308;50.810;0.284;2023-04-15T11:56:19;17.20;99.90
58517;DHT22;44308;50.810;0.284;2023-04-15T11:58:46;16.70;99.90
58517;DHT22;44308;50.810;0.284;2023-04-15T12:01:12;16.80;99.90
58517;DHT22;44308;50.810;0.284;2023-04-15T12:03:41;17.10;99.90
58517;DHT22;44308;50.810;0.284;2023-04-15T12:11:37;18.20;99.90
58517;DHT22;44308;50.810;0.284;2023-04-15T12:14:10;17.20;99.90
58517;DHT22;44308;50.810;0.284;2023-04-15T12:16:46;16.40;99.90
58517;DHT22;44308;50.810;0.284;2023-04-15T12:19:15;16.10;99.90
58517;DHT22;44308;50.810;0.284;2023-04-15T12:21:44;16.10;99.90
58517;DHT22;44308;50.810;0.284;2023-04-15T12:24:11;15.90;99.90
58517;DHT22;44308;50.810;0.284;2023-04-15T12:26:43;16.30;99.90
58517;DHT22;44308;50.810;0.284;2023-04-15T12:29:10;16.60;99.90
58517;DHT22;44308;50.810;0.284;2023-04-15T12:31:45;17.10;99.90
58517;DHT22;44308;50.810;0.284;2023-04-15T12:34:13;17.50;99.90
58517;DHT22;44308;50.810;0.284;2023-04-15T12:36:39;17.60;99.90
58517;DHT22;44308;50.810;0.284;2023-04-15T12:39:05;17.10;99.90
58517;DHT22;44308;50.810;0.284;2023-04-15T12:41:31;16.60;99.90
58517;DHT22;44308;50.810;0.284;2023-04-15T12:43:58;16.20;99.90
58517;DHT22;44308;50.810;0.284;2023-04-15T12:46:25;16.00;99.90
58517;DHT22;44308;50.810;0.284;2023-04-15T12:48:52;15.90;99.90
58517;DHT22;44308;50.810;0.284;2023-04-15T12:51:18;16.60;99.90
58517;DHT22;44308;50.810;0.284;2023-04-15T12:53:46;16.90;99.90
58517;DHT22;44308;50.810;0.284;2023-04-15T12:56:13;16.90;99.90
58517;DHT22;44308;50.810;0.284;2023-04-15T12:58:38;17.40;99.90
58517;DHT22;44308;50.810;0.284;2023-04-15T13:01:04;18.00;99.90
58517;DHT22;44308;50.810;0.284;2023-04-15T13:03:31;18.10;99.90
58517;DHT22;44308;50.810;0.284;2023-04-15T13:05:56;17.70;99.90
58517;DHT22;44308;50.810;0.284;2023-04-15T13:08:22;17.90;99.90
58517;DHT22;44308;50.810;0.284;2023-04-15T13:10:48;18.10;99.90
58517;DHT22;44308;50.810;0.284;2023-04-15T13:13:14;18.40;99.90
58517;DHT22;44308;50.810;0.284;2023-04-15T13:15:40;18.20;99.90
58517;DHT22;44308;50.810;0.284;2023-04-15T13:18:06;18.30;99.90
58517;DHT22;44308;50.810;0.284;2023-04-15T13:20:32;18.80;99.90
58517;DHT22;44308;50.810;0.284;2023-04-15T13:22:58;19.30;99.90
58517;DHT22;44308;50.810;0.284;2023-04-15T13:25:24;18.70;99.90
58517;DHT22;44308;50.810;0.284;2023-04-15T13:27:50;18.10;99.90
58517;DHT22;44308;50.810;0.284;2023-04-15T13:30:16;17.60;99.90
58517;DHT22;44308;50.810;0.284;2023-04-15T13:32:42;17.10;99.90
58517;DHT22;44308;50.810;0.284;2023-04-15T13:35:08;17.00;99.90
58517;DHT22;44308;50.810;0.284;2023-04-15T13:37:33;17.50;99.90
58517;DHT22;44308;50.810;0.284;2023-04-15T13:39:59;18.00;99.90
58517;DHT22;44308;50.810;0.284;2023-04-15T13:42:44;18.50;99.90
58517;DHT22;44308;50.810;0.284;2023-04-15T13:45:10;18.20;99.90
58517;DHT22;44308;50.810;0.284;2023-04-15T13:47:36;17.70;99.90
58517;DHT22;44308;50.810;0.284;2023-04-15T13:50:01;18.10;99.90
58517;DHT22;44308;50.810;0.284;2023-04-15T13:52:28;18.70;99.90
58517;DHT22;44308;50.810;0.284;2023-04-15T13:54:54;18.70;99.90
58517;DHT22;44308;50.810;0.284;2023-04-15T13:57:20;19.10;99.90
58517;DHT22;44308;50.810;0.284;2023-04-15T13:59:45;19.00;99.90
58517;DHT22;44308;50.810;0.284;2023-04-15T14:02:11;19.20;99.90
58517;DHT22;44308;50.810;0.284;2023-04-15T14:04:37;19.50;99.90
58517;DHT22;44308;50.810;0.284;2023-04-15T14:07:03;19.60;99.90
58517;DHT22;44308;50.810;0.284;2023-04-15T14:09:28;19.70;99.90
58517;DHT22;44308;50.810;0.284;2023-04-15T14:11:54;20.00;99.90
58517;DHT22;44308;50.810;0.284;2023-04-15T14:14:20;20.20;99.90
58517;DHT22;44308;50.810;0.284;2023-04-15T14:16:46;20.40;99.90
58517;DHT22;44308;50.810;0.284;2023-04-15T14:19:13;20.10;99.90
58517;DHT22;44308;50.810;0.284;2023-04-15T14:21:38;19.60;99.90
58517;DHT22;44308;50.810;0.284;2023-04-15T14:24:06;19.30;99.90
58517;DHT22;44308;50.810;0.284;2023-04-15T14:26:31;19.30;99.90
58517;DHT22;44308;50.810;0.284;2023-04-15T14:28:57;19.20;99.90
58517;DHT22;44308;50.810;0.284;2023-04-15T14:31:23;19.40;99.90
58517;DHT22;44308;50.810;0.284;2023-04-15T14:33:48;19.50;99.90
58517;DHT22;44308;50.810;0.284;2023-04-15T14:36:14;19.20;99.90
58517;DHT22;44308;50.810;0.284;2023-04-15T14:38:40;18.70;99.90
58517;DHT22;44308;50.810;0.284;2023-04-15T14:41:06;18.20;99.90
58517;DHT22;44308;50.810;0.284;2023-04-15T14:43:33;18.30;99.90
58517;DHT22;44308;50.810;0.284;2023-04-15T14:45:58;18.00;99.90
58517;DHT22;44308;50.810;0.284;2023-04-15T14:48:24;17.90;99.90
58517;DHT22;44308;50.810;0.284;2023-04-15T14:50:51;17.90;99.90
58517;DHT22;44308;50.810;0.284;2023-04-15T14:53:17;17.70;99.90
58517;DHT22;44308;50.810;0.284;2023-04-15T14:55:43;17.70;99.90
58517;DHT22;44308;50.810;0.284;2023-04-15T14:58:10;17.40;99.90
58517;DHT22;44308;50.810;0.284;2023-04-15T15:00:37;17.10;99.90
58517;DHT22;44308;50.810;0.284;2023-04-15T15:03:10;17.30;99.90
58517;DHT22;44308;50.810;0.284;2023-04-15T15:05:44;17.20;99.90
58517;DHT22;44308;50.810;0.284;2023-04-15T15:08:10;17.40;99.90
58517;DHT22;44308;50.810;0.284;2023-04-15T15:10:37;17.80;99.90
58517;DHT22;44308;50.810;0.284;2023-04-15T15:13:03;18.50;99.90
58517;DHT22;44308;50.810;0.284;2023-04-15T15:15:29;19.20;99.90
58517;DHT22;44308;50.810;0.284;2023-04-15T15:17:55;19.60;99.90
58517;DHT22;44308;50.810;0.284;2023-04-15T15:20:20;19.90;99.90
58517;DHT22;44308;50.810;0.284;2023-04-15T15:22:47;20.10;99.90
58517;DHT22;44308;50.810;0.284;2023-04-15T15:25:13;20.30;99.90
58517;DHT22;44308;50.810;0.284;2023-04-15T15:27:38;19.90;99.90
58517;DHT22;44308;50.810;0.284;2023-04-15T15:30:04;19.30;99.90
58517;DHT22;44308;50.810;0.284;2023-04-15T15:32:31;18.60;99.90
58517;DHT22;44308;50.810;0.284;2023-04-15T15:34:57;18.20;99.90
58517;DHT22;44308;50.810;0.284;2023-04-15T15:37:22;17.80;99.90
58517;DHT22;44308;50.810;0.284;2023-04-15T15:39:48;17.00;99.90
58517;DHT22;44308;50.810;0.284;2023-04-15T15:42:15;15.80;99.90
58517;DHT22;44308;50.810;0.284;2023-04-15T15:44:41;14.90;99.90
58517;DHT22;44308;50.810;0.284;2023-04-15T15:47:07;14.20;99.90
58517;DHT22;44308;50.810;0.284;2023-04-15T15:49:32;13.70;99.90